This is the latest recevied weather packets stored in our database for station/object SP2CDN-10. If no packets are shown the sender has not sent any weather packets the latest 10 day(s).
| Time | Temp. | Humidity | Pressure | Rain* | Wind** | Luminosity | Snow |
|---|---|---|---|---|---|---|---|
| 1777363263 | 9.44° C | 41% | 1025.6 hPa | - | - | - | - |
| 1777360977 | 7.78° C | 48% | 1025.7 hPa | - | - | - | - |
| 1777358696 | 6.11° C | 58% | 1025.6 hPa | - | - | - | - |
| 1777356414 | 5° C | 71% | 1025.6 hPa | - | - | - | - |
| 1777354132 | 3.33° C | 78% | 1025.3 hPa | - | - | - | - |
| 1777351851 | 1.11° C | 86% | 1025 hPa | - | - | - | - |
| 1777349569 | -0.56° C | 92% | 1024.7 hPa | - | - | - | - |
| 1777347287 | -1.11° C | 91% | 1024.6 hPa | - | - | - | - |
| 1777345006 | -1.67° C | 89% | 1024.3 hPa | - | - | - | - |
| 1777342724 | -1.11° C | 87% | 1024.3 hPa | - | - | - | - |
| 1777340443 | -0.56° C | 84% | 1024.2 hPa | - | - | - | - |
| 1777335880 | 0° C | 75% | 1023.9 hPa | - | - | - | - |
| 1777313973 | 7.22° C | 39% | 1021.4 hPa | - | - | - | - |
| 1777313973 | 7.22° C | 39% | 1021.4 hPa | - | - | - | - |
| 1777313973 | 7.22° C | 39% | 1021.4 hPa | - | - | - | - |
| 1777313973 | 7.22° C | 39% | 1021.4 hPa | - | - | - | - |
| 1777313973 | 7.22° C | 39% | 1021.4 hPa | - | - | - | - |
| 1777313973 | 7.22° C | 39% | 1021.4 hPa | - | - | - | - |
| 1777313973 | 7.22° C | 39% | 1021.4 hPa | - | - | - | - |
| 1777313973 | 7.22° C | 39% | 1021.4 hPa | - | - | - | - |
| 1777313973 | 7.22° C | 39% | 1021.4 hPa | - | - | - | - |
| 1777313973 | 7.22° C | 39% | 1021.4 hPa | - | - | - | - |
| 1777313973 | 7.22° C | 39% | 1021.4 hPa | - | - | - | - |
| 1777313973 | 7.22° C | 39% | 1021.4 hPa | - | - | - | - |
| 1777313973 | 7.22° C | 39% | 1021.4 hPa | - | - | - | - |
* Rain since midnight (hover to see other rain measurements)
** Current wind speed in m/s (hover to see current wind gust speed)